Terminal Aerodrome Forecast
Issued by NWS

Current Version | Previous Version | Text Only | Print | Product List | Glossary On
Versions: 1 2 3 4 5 6 7 8 9 10 11 12
846
FTUS44 KEPZ 211120
TAFTCS
TAF
KTCS 211120Z 2112/2212 25018G28KT P6SM SCT100
     FM211600 26024G35KT P6SM SCT100
     FM220300 30012KT P6SM SKC=

USA.gov is the U.S. government's official web portal to all federal, state and local government web resources and services.